Time;durP1;ratioP1;P1;durP2;ratioP2;P2;SDS_P1;SDS_P2;PMS_P1;PMS_P2;Temp;Humidity;BMP_temperature;BMP_pressure;BME280_temperature;BME280_humidity;BME280_pressure;Samples;Min_cycle;Max_cycle;Signal;HPM_P1;HPM_P2
2021/12/20 00:00:55;;;;;;;4.03;1.98;;;21.50;50.40;;;;;;3864258;22;20063;-88
2021/12/20 00:02:27;;;;;;;3.58;1.83;;;21.50;50.40;;;;;;3855454;23;20020;-87
2021/12/20 00:03:57;;;;;;;3.40;1.70;;;21.60;50.50;;;;;;3853487;22;20020;-87
2021/12/20 00:05:29;;;;;;;3.70;2.05;;;21.50;50.40;;;;;;3855035;23;20527;-88
2021/12/20 00:07:02;;;;;;;4.70;2.05;;;21.50;50.40;;;;;;3853500;23;20024;-88
2021/12/20 00:08:36;;;;;;;3.55;1.80;;;21.50;50.30;;;;;;3854232;22;20027;-87
2021/12/20 00:10:08;;;;;;;5.18;2.30;;;21.50;50.30;;;;;;3854978;23;20052;-88
2021/12/20 00:11:40;;;;;;;5.45;1.95;;;21.60;50.40;;;;;;3855125;23;20387;-88
2021/12/20 00:13:12;;;;;;;5.28;1.98;;;21.50;50.40;;;;;;3854737;23;20052;-88
2021/12/20 00:14:43;;;;;;;5.07;2.25;;;21.50;50.40;;;;;;3855558;22;20025;-89
2021/12/20 00:16:15;;;;;;;3.63;1.60;;;21.50;50.40;;;;;;3855425;23;20021;-87
2021/12/20 00:17:47;;;;;;;3.35;1.90;;;21.50;50.40;;;;;;3856087;23;20444;-87
2021/12/20 00:19:18;;;;;;;3.88;1.88;;;21.50;50.30;;;;;;3855170;22;20078;-87
2021/12/20 00:20:50;;;;;;;4.93;2.00;;;21.50;50.30;;;;;;3856357;23;20016;-88
2021/12/20 00:22:23;;;;;;;3.47;1.83;;;21.50;50.30;;;;;;3855432;23;20016;-89
2021/12/20 00:23:55;;;;;;;4.15;1.90;;;21.50;50.30;;;;;;3855010;22;20021;-87
2021/12/20 00:25:27;;;;;;;3.22;1.80;;;21.50;51.00;;;;;;3856041;23;20021;-87
2021/12/20 00:26:59;;;;;;;4.07;1.92;;;21.50;50.40;;;;;;3856335;23;20047;-87
2021/12/20 00:28:31;;;;;;;5.37;1.80;;;21.50;50.40;;;;;;3856142;23;20021;-87
2021/12/20 00:30:03;;;;;;;3.03;1.80;;;21.50;50.40;;;;;;3855740;23;20040;-89
2021/12/20 00:31:35;;;;;;;6.30;1.85;;;21.50;50.40;;;;;;3855142;23;20032;-87
2021/12/20 00:33:05;;;;;;;4.45;2.08;;;21.50;50.40;;;;;;3855278;23;20024;-88
2021/12/20 00:34:37;;;;;;;3.30;2.00;;;21.50;50.40;;;;;;3855779;22;20460;-87
2021/12/20 00:36:09;;;;;;;3.25;1.90;;;21.40;50.40;;;;;;3855994;23;20016;-88
2021/12/20 00:41:21;;;;;;;3.33;1.80;;;21.40;50.40;;;;;;3856877;23;20020;-87
2021/12/20 00:42:55;;;;;;;4.60;2.10;;;21.40;50.40;;;;;;3855761;23;20040;-87
2021/12/20 00:44:27;;;;;;;3.40;1.67;;;21.50;50.40;;;;;;3855603;22;20017;-88
2021/12/20 00:46:01;;;;;;;3.00;1.80;;;21.40;50.30;;;;;;3855071;23;20051;-86
2021/12/20 00:47:32;;;;;;;3.95;1.70;;;21.50;50.40;;;;;;3855056;23;20020;-87
2021/12/20 00:49:04;;;;;;;3.53;1.95;;;21.40;50.40;;;;;;3855472;22;20028;-87
2021/12/20 00:50:36;;;;;;;3.13;2.00;;;21.40;50.40;;;;;;3855968;23;20032;-88
2021/12/20 00:52:07;;;;;;;5.55;2.30;;;21.40;50.40;;;;;;3855804;23;20594;-87
2021/12/20 00:53:40;;;;;;;4.03;1.70;;;21.40;51.00;;;;;;3855278;22;20021;-87
2021/12/20 00:55:15;;;;;;;3.30;1.95;;;21.40;50.30;;;;;;3854983;23;20027;-87
2021/12/20 00:56:48;;;;;;;3.72;1.83;;;21.40;50.40;;;;;;3856031;23;20028;-87
2021/12/20 00:58:20;;;;;;;5.57;1.90;;;21.40;50.40;;;;;;3854732;22;20116;-87
2021/12/20 00:59:52;;;;;;;3.47;1.90;;;21.40;50.40;;;;;;3855996;22;20070;-88
2021/12/20 01:01:24;;;;;;;2.85;1.73;;;21.40;50.40;;;;;;3854615;23;20036;-90
2021/12/20 01:02:56;;;;;;;3.67;1.73;;;21.40;50.40;;;;;;3855164;23;20042;-88
2021/12/20 01:04:27;;;;;;;4.05;1.90;;;21.40;50.40;;;;;;3854593;23;20493;-87
2021/12/20 01:05:59;;;;;;;3.47;1.95;;;21.40;50.40;;;;;;3856366;23;20016;-87
2021/12/20 01:07:31;;;;;;;3.75;1.60;;;21.40;50.40;;;;;;3856539;23;20017;-88
2021/12/20 01:09:04;;;;;;;3.30;1.80;;;21.40;50.50;;;;;;3855228;23;20075;-89
2021/12/20 01:10:38;;;;;;;4.13;2.00;;;21.40;50.50;;;;;;3854530;23;20091;-87
2021/12/20 01:12:16;;;;;;;2.92;1.60;;;21.40;50.50;;;;;;3857878;23;20021;-88
2021/12/20 01:13:48;;;;;;;4.57;2.00;;;21.40;50.50;;;;;;3857068;23;20027;-88
2021/12/20 01:15:21;;;;;;;3.85;2.05;;;21.40;50.50;;;;;;3856733;23;20355;-88
2021/12/20 01:16:56;;;;;;;;;;;21.40;50.50;;;;;;3858558;23;20079;-88
2021/12/20 01:18:27;;;;;;;3.42;1.55;;;21.40;50.50;;;;;;3857552;22;19951;-88
2021/12/20 01:19:59;;;;;;;3.25;1.90;;;21.30;50.60;;;;;;3857128;23;20024;-88
2021/12/20 01:21:31;;;;;;;2.95;1.65;;;21.40;50.60;;;;;;3856192;23;20016;-89
2021/12/20 01:23:03;;;;;;;3.65;1.83;;;21.40;50.60;;;;;;3856822;23;20020;-87
2021/12/20 01:24:36;;;;;;;2.73;1.60;;;21.30;51.20;;;;;;3856442;22;20029;-87
2021/12/20 01:26:08;;;;;;;3.17;1.90;;;21.30;50.60;;;;;;3854906;23;20267;-88
2021/12/20 01:27:39;;;;;;;5.30;1.90;;;21.30;50.60;;;;;;3856645;23;20408;-88
2021/12/20 01:29:11;;;;;;;4.57;1.60;;;21.30;50.60;;;;;;3855523;22;20020;-87
2021/12/20 01:30:43;;;;;;;3.55;1.85;;;21.30;50.50;;;;;;3854662;23;20328;-87
2021/12/20 01:32:15;;;;;;;2.72;1.55;;;21.30;50.60;;;;;;3855063;23;20418;-87
2021/12/20 07:19:25;;;;;;;6.10;1.85;;;20.90;43.50;;;;;;3856586;23;20035;-87
2021/12/20 07:20:59;;;;;;;5.85;2.10;;;20.90;43.30;;;;;;3857180;23;20074;-89
2021/12/20 07:22:31;;;;;;;3.55;1.67;;;20.90;44.00;;;;;;3856643;23;20016;-89
2021/12/20 07:24:04;;;;;;;7.50;1.85;;;20.90;43.10;;;;;;3856949;23;20020;-89
2021/12/20 07:25:35;;;;;;;5.10;1.90;;;20.90;43.00;;;;;;3858199;23;20087;-91
2021/12/20 07:27:09;;;;;;;6.30;1.80;;;20.90;42.80;;;;;;3857660;23;20025;-91
2021/12/20 07:28:42;;;;;;;5.20;1.40;;;20.90;42.60;;;;;;3863476;23;20086;-91
2021/12/20 07:30:14;;;;;;;3.60;1.90;;;20.90;42.40;;;;;;3857008;23;20067;-91
2021/12/20 07:31:46;;;;;;;2.20;1.37;;;20.90;42.20;;;;;;3861143;23;20641;-90
2021/12/20 07:33:18;;;;;;;4.18;1.85;;;20.90;42.00;;;;;;3857489;23;20259;-88
2021/12/20 08:16:35;;;;;;;6.32;1.20;;;21.80;48.10;;;;;;3894314;22;20016;-89
2021/12/20 08:18:06;;;;;;;3.97;1.27;;;21.90;47.60;;;;;;3893926;22;20069;-90
2021/12/20 08:19:38;;;;;;;3.35;1.30;;;21.90;47.80;;;;;;3894121;22;20022;-90
2021/12/20 08:21:10;;;;;;;6.30;1.10;;;21.90;47.60;;;;;;3896207;22;20069;-93
2021/12/20 08:22:42;;;;;;;1.80;0.80;;;21.90;48.00;;;;;;3895373;22;20384;-93
2021/12/20 08:24:15;;;;;;;3.03;1.10;;;21.90;48.50;;;;;;3897441;22;20024;-94
2021/12/20 08:25:48;;;;;;;3.05;1.05;;;21.90;48.40;;;;;;3904038;22;20079;-92
2021/12/20 08:27:20;;;;;;;2.75;1.30;;;22.00;48.40;;;;;;3904368;22;20019;-91
2021/12/20 08:50:39;;;;;;;3.80;1.10;;;22.40;48.90;;;;;;3858096;22;20020;-92
2021/12/20 08:52:11;;;;;;;3.28;1.00;;;22.50;49.10;;;;;;3857107;23;20027;-91
2021/12/20 08:53:43;;;;;;;16.85;1.67;;;22.40;48.50;;;;;;3858416;23;20017;-91
2021/12/20 08:55:15;;;;;;;2.38;1.10;;;22.40;49.10;;;;;;3858294;23;20016;-91
2021/12/20 08:56:49;;;;;;;12.60;1.67;;;22.50;48.80;;;;;;3868750;23;20076;-93
2021/12/20 08:58:24;;;;;;;8.75;1.30;;;22.50;50.20;;;;;;3868177;23;20068;-93
2021/12/20 08:59:58;;;;;;;6.35;1.30;;;22.50;49.40;;;;;;3859538;23;20025;-94
2021/12/20 09:01:31;;;;;;;9.00;1.40;;;22.60;49.20;;;;;;3866815;23;20025;-92
2021/12/20 09:03:03;;;;;;;5.13;1.13;;;22.60;50.10;;;;;;3859864;23;20021;-91
2021/12/20 09:04:35;;;;;;;2.88;0.95;;;22.70;49.80;;;;;;3856532;23;20092;-90
2021/12/20 09:06:08;;;;;;;8.00;1.20;;;22.70;48.90;;;;;;3859692;23;20021;-93
2021/12/20 09:07:41;;;;;;;8.05;1.05;;;22.60;48.90;;;;;;3859321;23;20120;-91
2021/12/20 09:09:22;;;;;;;7.45;1.30;;;22.60;49.00;;;;;;3859574;23;20374;-94
2021/12/20 09:10:54;;;;;;;18.45;1.20;;;22.70;49.50;;;;;;3859502;23;20027;-90
2021/12/20 09:13:02;;;;;;;8.10;1.70;;;22.70;49.30;;;;;;3862811;23;20021;-92
2021/12/20 09:14:35;;;;;;;6.20;1.40;;;22.70;49.40;;;;;;3842859;22;20380;-95
2021/12/20 09:16:07;;;;;;;7.18;1.20;;;22.80;50.50;;;;;;3863902;23;20048;-92
2021/12/20 09:17:39;;;;;;;3.60;1.15;;;22.80;49.20;;;;;;3870919;23;20031;-94
2021/12/20 09:19:11;;;;;;;3.40;1.10;;;22.90;49.20;;;;;;3860232;23;20004;-91
2021/12/20 09:20:43;;;;;;;4.72;1.00;;;22.90;49.10;;;;;;3858731;23;20072;-93
2021/12/20 09:22:16;;;;;;;8.57;1.17;;;22.90;49.60;;;;;;3859431;23;20013;-91
2021/12/20 09:23:48;;;;;;;1.90;0.90;;;23.00;49.50;;;;;;3856279;22;20074;-91
2021/12/20 09:33:36;;;;;;;3.70;1.33;;;23.10;49.40;;;;;;3873349;22;20020;-93
2021/12/20 09:41:12;;;;;;;4.53;1.17;;;23.10;49.30;;;;;;3860729;23;20004;-90
2021/12/20 09:42:50;;;;;;;4.05;1.02;;;23.10;49.40;;;;;;3861419;23;20025;-92
2021/12/20 09:44:27;;;;;;;3.25;0.85;;;23.00;47.80;;;;;;3864303;23;20047;-93
2021/12/20 09:45:59;;;;;;;3.78;1.17;;;23.00;48.20;;;;;;3861330;22;20443;-93
2021/12/20 09:47:33;;;;;;;4.03;0.90;;;23.10;48.10;;;;;;3861064;23;20021;-92
2021/12/20 11:04:23;;;;;;;5.97;1.10;;;23.80;45.00;;;;;;3855313;23;20474;-92
2021/12/20 11:06:13;;;;;;;4.75;0.90;;;23.80;45.20;;;;;;3853557;23;20025;-91
2021/12/20 11:09:47;;;;;;;3.08;0.75;;;23.70;45.60;;;;;;3842110;23;20082;-93
2021/12/20 11:11:19;;;;;;;2.58;0.80;;;23.60;45.80;;;;;;3837542;23;20020;-90
2021/12/20 11:12:50;;;;;;;3.95;0.82;;;23.60;46.00;;;;;;3857678;23;20012;-92
2021/12/20 11:14:23;;;;;;;1.80;0.77;;;23.60;46.00;;;;;;3855878;22;20074;-93
2021/12/20 11:15:55;;;;;;;3.97;0.82;;;23.60;46.00;;;;;;3854703;23;20112;-93
2021/12/20 11:17:28;;;;;;;2.30;0.90;;;23.60;46.10;;;;;;3854491;23;20033;-92
2021/12/20 11:19:16;;;;;;;2.95;0.70;;;23.50;45.90;;;;;;3856069;22;20028;-92
2021/12/20 11:20:50;;;;;;;2.00;0.80;;;23.50;45.90;;;;;;3856146;23;20017;-93
2021/12/20 11:22:25;;;;;;;1.50;0.88;;;23.50;46.60;;;;;;3856084;23;20021;-92
2021/12/20 11:23:57;;;;;;;3.72;0.75;;;23.50;45.90;;;;;;3856763;22;20055;-90
2021/12/20 11:25:29;;;;;;;2.42;0.90;;;23.40;45.90;;;;;;3858348;23;20020;-92
2021/12/20 11:27:01;;;;;;;3.15;0.75;;;23.50;46.10;;;;;;3858638;23;20016;-91
2021/12/20 11:28:33;;;;;;;3.90;0.98;;;23.50;46.20;;;;;;3856535;22;20459;-91
2021/12/20 11:30:06;;;;;;;3.33;0.80;;;23.50;46.20;;;;;;3856188;23;20021;-91
2021/12/20 11:31:38;;;;;;;1.23;0.65;;;23.40;46.10;;;;;;3871157;23;20000;-92
2021/12/20 11:33:10;;;;;;;1.67;0.70;;;23.50;46.10;;;;;;3872231;23;20080;-92
2021/12/20 11:34:42;;;;;;;1.33;0.60;;;23.40;46.10;;;;;;3868100;23;20021;-90
2021/12/20 11:36:16;;;;;;;2.40;0.57;;;23.50;46.10;;;;;;3870062;23;20020;-91
2021/12/20 11:37:48;;;;;;;2.65;0.90;;;23.40;46.70;;;;;;3866296;23;20511;-93
2021/12/20 11:39:20;;;;;;;2.47;0.90;;;23.40;46.20;;;;;;3861780;22;20044;-91
2021/12/20 11:40:52;;;;;;;4.72;0.90;;;23.50;46.60;;;;;;3863081;23;20260;-95
2021/12/20 11:42:24;;;;;;;4.03;1.38;;;23.40;46.60;;;;;;3864064;23;20099;-94
2021/12/20 11:43:56;;;;;;;25.98;2.45;;;23.50;46.50;;;;;;3861557;22;20016;-91
2021/12/20 11:45:33;;;;;;;7.45;1.92;;;23.40;46.70;;;;;;3862493;23;20040;-92
2021/12/20 11:47:16;;;;;;;9.45;1.92;;;23.50;46.70;;;;;;3861007;23;20016;-91
2021/12/20 11:48:48;;;;;;;;;;;23.50;46.50;;;;;;3861443;22;20175;-93
2021/12/20 11:50:22;;;;;;;7.03;2.17;;;23.40;48.20;;;;;;3856977;23;20392;-93
2021/12/20 11:59:21;;;;;;;11.80;1.90;;;23.60;46.70;;;;;;3800022;23;20342;-92
2021/12/20 12:00:54;;;;;;;8.20;2.28;;;23.60;46.60;;;;;;3855785;23;20020;-92
2021/12/20 12:03:19;;;;;;;6.22;1.92;;;23.60;47.30;;;;;;3855335;23;20013;-94
2021/12/20 12:05:07;;;;;;;8.10;1.55;;;23.70;47.70;;;;;;3850432;23;20051;-94
2021/12/20 12:07:08;;;;;;;4.78;1.70;;;23.80;48.50;;;;;;3856255;23;20016;-93
2021/12/20 12:08:41;;;;;;;6.93;1.73;;;23.80;48.10;;;;;;3854861;22;20016;-91
2021/12/20 12:10:14;;;;;;;4.70;1.90;;;23.80;46.80;;;;;;3856207;23;20036;-91
2021/12/20 12:11:48;;;;;;;;;;;23.80;46.50;;;;;;3857982;23;20020;-92
2021/12/20 12:15:59;;;;;;;5.47;1.60;;;23.80;46.80;;;;;;3846595;23;20025;-93
2021/12/20 12:17:58;;;;;;;4.53;1.73;;;23.70;46.70;;;;;;3857628;23;20443;-94
2021/12/20 12:19:48;;;;;;;4.90;1.92;;;23.70;46.70;;;;;;3851507;22;20029;-93
2021/12/20 12:21:41;;;;;;;3.38;1.27;;;23.60;46.70;;;;;;3858663;23;20086;-94
2021/12/20 12:23:27;;;;;;;4.73;1.23;;;23.60;46.70;;;;;;3858517;23;20036;-94
2021/12/20 12:24:59;;;;;;;2.97;1.15;;;23.60;46.70;;;;;;3858581;23;20020;-94
2021/12/20 12:26:33;;;;;;;4.45;1.45;;;23.60;46.70;;;;;;3857939;23;20435;-93
2021/12/20 12:28:46;;;;;;;4.50;1.60;;;23.60;46.70;;;;;;3859644;23;20062;-94
2021/12/20 12:30:58;;;;;;;6.05;1.80;;;23.60;46.60;;;;;;3858913;23;20036;-91
2021/12/20 12:32:35;;;;;;;3.58;1.40;;;23.60;46.80;;;;;;3857448;23;20096;-92
2021/12/20 12:34:07;;;;;;;5.35;1.40;;;23.70;46.90;;;;;;3856825;23;20035;-92
2021/12/20 12:35:48;;;;;;;3.30;1.40;;;23.70;46.90;;;;;;3857278;23;20020;-90
2021/12/20 12:38:08;;;;;;;2.75;1.17;;;23.80;47.00;;;;;;3858072;23;20012;-92
2021/12/20 12:39:40;;;;;;;5.00;1.58;;;23.90;46.70;;;;;;3857523;22;20100;-94
2021/12/20 12:41:16;;;;;;;7.00;1.40;;;23.80;46.50;;;;;;3857564;23;20355;-93
2021/12/20 12:42:52;;;;;;;2.22;1.15;;;23.80;46.50;;;;;;3857024;23;20070;-91
2021/12/20 12:44:27;;;;;;;4.20;1.10;;;23.80;46.50;;;;;;3855264;22;20036;-90
2021/12/20 12:46:04;;;;;;;7.38;1.27;;;23.80;47.00;;;;;;3855457;23;20032;-89
2021/12/20 12:47:36;;;;;;;6.10;1.30;;;23.90;46.70;;;;;;3855466;23;20525;-91
2021/12/20 12:49:48;;;;;;;8.90;1.30;;;23.80;46.50;;;;;;3855291;22;20025;-94
2021/12/20 12:59:25;;;;;;;4.43;1.50;;;23.70;46.60;;;;;;3763955;23;20691;-93
2021/12/20 13:01:01;;;;;;;4.65;1.30;;;23.60;46.70;;;;;;3835758;23;20469;-94
2021/12/20 13:02:35;;;;;;;4.68;1.10;;;23.70;47.00;;;;;;3856297;23;20470;-91
2021/12/20 13:04:07;;;;;;;1.50;1.00;;;23.80;46.90;;;;;;3855636;23;20028;-93
2021/12/20 13:05:39;;;;;;;2.22;1.17;;;23.80;46.70;;;;;;3855412;23;20017;-93
2021/12/20 13:07:11;;;;;;;3.80;1.20;;;23.80;46.50;;;;;;3856500;23;20017;-92
2021/12/20 13:08:51;;;;;;;4.82;1.25;;;23.80;46.60;;;;;;3857536;23;20020;-93
2021/12/20 13:10:29;;;;;;;3.95;1.00;;;23.80;46.60;;;;;;3854779;23;20039;-89
2021/12/20 13:12:13;;;;;;;3.92;1.00;;;23.90;46.40;;;;;;3854658;23;20451;-90
2021/12/20 13:13:55;;;;;;;4.90;1.02;;;24.00;46.30;;;;;;3858614;23;20016;-94
2021/12/20 13:15:33;;;;;;;11.20;1.95;;;24.00;46.20;;;;;;3855981;23;20391;-93
2021/12/20 13:17:05;;;;;;;4.57;1.20;;;24.00;46.80;;;;;;3856840;23;20020;-93
2021/12/20 13:18:45;;;;;;;5.25;1.25;;;24.10;46.70;;;;;;3855594;23;20099;-94
2021/12/20 13:20:23;;;;;;;4.43;1.20;;;24.20;46.70;;;;;;3858008;23;20100;-93
2021/12/20 13:21:59;;;;;;;3.53;1.15;;;24.20;46.30;;;;;;3858690;23;20099;-90
2021/12/20 13:23:32;;;;;;;2.55;1.10;;;24.20;46.50;;;;;;3855372;22;20108;-91
2021/12/20 13:25:03;;;;;;;;;;;24.10;46.60;;;;;;3857893;23;20147;-90
2021/12/20 13:26:36;;;;;;;15.57;2.28;;;24.00;45.90;;;;;;3857794;23;19920;-93
2021/12/20 13:28:09;;;;;;;;;;;24.00;46.60;;;;;;3858599;23;20099;-89
2021/12/20 13:30:03;;;;;;;3.65;1.13;;;23.90;46.50;;;;;;3856501;22;19923;-91
2021/12/20 13:31:37;;;;;;;7.40;1.35;;;24.00;46.40;;;;;;3855781;23;20032;-93
2021/12/20 13:33:08;;;;;;;2.30;1.00;;;24.00;46.20;;;;;;3854809;23;20017;-91
